sensor_id;sensor_type;location;lat;lon;timestamp;P1;durP1;ratioP1;P2;durP2;ratioP2
76604;SDS011;73179;50.978;16.998;2023-10-31T00:01:07;6.88;;;4.53;;
76604;SDS011;73179;50.978;16.998;2023-10-31T00:03:33;6.85;;;3.78;;
76604;SDS011;73179;50.978;16.998;2023-10-31T00:05:59;6.82;;;3.92;;
76604;SDS011;73179;50.978;16.998;2023-10-31T00:08:25;6.10;;;4.38;;
76604;SDS011;73179;50.978;16.998;2023-10-31T00:10:51;7.43;;;4.05;;
76604;SDS011;73179;50.978;16.998;2023-10-31T00:13:17;6.30;;;4.07;;
76604;SDS011;73179;50.978;16.998;2023-10-31T00:15:42;4.72;;;3.55;;
76604;SDS011;73179;50.978;16.998;2023-10-31T00:18:09;7.80;;;4.00;;
76604;SDS011;73179;50.978;16.998;2023-10-31T00:20:35;6.40;;;4.30;;
76604;SDS011;73179;50.978;16.998;2023-10-31T00:23:01;7.55;;;4.35;;
76604;SDS011;73179;50.978;16.998;2023-10-31T00:25:26;7.45;;;3.65;;
76604;SDS011;73179;50.978;16.998;2023-10-31T00:27:52;5.93;;;3.53;;
76604;SDS011;73179;50.978;16.998;2023-10-31T00:30:18;7.53;;;3.63;;
76604;SDS011;73179;50.978;16.998;2023-10-31T00:32:44;5.43;;;4.20;;
76604;SDS011;73179;50.978;16.998;2023-10-31T00:35:10;6.35;;;3.78;;
76604;SDS011;73179;50.978;16.998;2023-10-31T00:37:38;6.68;;;3.40;;
76604;SDS011;73179;50.978;16.998;2023-10-31T00:40:06;7.07;;;3.67;;
76604;SDS011;73179;50.978;16.998;2023-10-31T00:42:32;7.00;;;3.80;;
76604;SDS011;73179;50.978;16.998;2023-10-31T00:44:59;5.32;;;3.45;;
76604;SDS011;73179;50.978;16.998;2023-10-31T00:47:25;5.85;;;3.97;;
76604;SDS011;73179;50.978;16.998;2023-10-31T00:49:51;6.75;;;4.07;;
76604;SDS011;73179;50.978;16.998;2023-10-31T00:52:18;5.22;;;4.18;;
76604;SDS011;73179;50.978;16.998;2023-10-31T00:54:44;6.18;;;4.05;;
76604;SDS011;73179;50.978;16.998;2023-10-31T00:57:10;7.00;;;3.67;;
76604;SDS011;73179;50.978;16.998;2023-10-31T00:59:36;7.13;;;4.03;;
76604;SDS011;73179;50.978;16.998;2023-10-31T01:02:04;6.63;;;3.95;;
76604;SDS011;73179;50.978;16.998;2023-10-31T01:04:30;6.47;;;3.80;;
76604;SDS011;73179;50.978;16.998;2023-10-31T01:06:57;6.60;;;3.70;;
76604;SDS011;73179;50.978;16.998;2023-10-31T01:09:22;6.18;;;3.53;;
76604;SDS011;73179;50.978;16.998;2023-10-31T01:11:48;4.78;;;3.85;;
76604;SDS011;73179;50.978;16.998;2023-10-31T01:14:14;7.18;;;3.80;;
76604;SDS011;73179;50.978;16.998;2023-10-31T01:16:40;9.73;;;3.85;;
76604;SDS011;73179;50.978;16.998;2023-10-31T01:19:06;5.25;;;3.45;;
76604;SDS011;73179;50.978;16.998;2023-10-31T01:21:33;4.50;;;3.47;;
76604;SDS011;73179;50.978;16.998;2023-10-31T01:23:59;5.97;;;3.50;;
76604;SDS011;73179;50.978;16.998;2023-10-31T01:26:25;4.70;;;3.00;;
76604;SDS011;73179;50.978;16.998;2023-10-31T01:28:51;8.63;;;2.92;;
76604;SDS011;73179;50.978;16.998;2023-10-31T01:31:18;7.32;;;2.95;;
76604;SDS011;73179;50.978;16.998;2023-10-31T01:33:44;7.30;;;2.97;;
76604;SDS011;73179;50.978;16.998;2023-10-31T01:36:11;5.93;;;2.40;;
76604;SDS011;73179;50.978;16.998;2023-10-31T01:38:38;5.00;;;2.65;;
76604;SDS011;73179;50.978;16.998;2023-10-31T01:41:04;8.45;;;3.25;;
76604;SDS011;73179;50.978;16.998;2023-10-31T01:43:36;5.00;;;3.10;;
76604;SDS011;73179;50.978;16.998;2023-10-31T01:46:03;5.45;;;3.00;;
76604;SDS011;73179;50.978;16.998;2023-10-31T01:48:30;4.45;;;2.78;;
76604;SDS011;73179;50.978;16.998;2023-10-31T01:50:58;6.63;;;3.05;;
76604;SDS011;73179;50.978;16.998;2023-10-31T01:53:25;7.53;;;2.65;;
76604;SDS011;73179;50.978;16.998;2023-10-31T01:55:53;9.15;;;3.63;;
76604;SDS011;73179;50.978;16.998;2023-10-31T01:58:23;6.05;;;2.55;;
76604;SDS011;73179;50.978;16.998;2023-10-31T02:00:54;3.28;;;2.40;;
76604;SDS011;73179;50.978;16.998;2023-10-31T02:03:20;4.50;;;2.50;;
76604;SDS011;73179;50.978;16.998;2023-10-31T02:05:47;5.13;;;3.05;;
76604;SDS011;73179;50.978;16.998;2023-10-31T02:08:13;10.00;;;2.88;;
76604;SDS011;73179;50.978;16.998;2023-10-31T02:10:39;4.90;;;2.70;;
76604;SDS011;73179;50.978;16.998;2023-10-31T02:13:15;5.90;;;2.85;;
76604;SDS011;73179;50.978;16.998;2023-10-31T02:15:45;6.82;;;2.70;;
76604;SDS011;73179;50.978;16.998;2023-10-31T02:18:11;4.50;;;2.40;;
76604;SDS011;73179;50.978;16.998;2023-10-31T02:20:38;8.63;;;3.20;;
76604;SDS011;73179;50.978;16.998;2023-10-31T02:23:03;6.22;;;2.40;;
76604;SDS011;73179;50.978;16.998;2023-10-31T02:25:30;4.45;;;2.70;;
76604;SDS011;73179;50.978;16.998;2023-10-31T02:27:56;5.50;;;2.70;;
76604;SDS011;73179;50.978;16.998;2023-10-31T02:30:22;5.40;;;3.05;;
76604;SDS011;73179;50.978;16.998;2023-10-31T02:32:48;5.30;;;3.05;;
76604;SDS011;73179;50.978;16.998;2023-10-31T02:35:18;7.15;;;2.50;;
76604;SDS011;73179;50.978;16.998;2023-10-31T02:37:44;3.30;;;2.40;;
76604;SDS011;73179;50.978;16.998;2023-10-31T02:40:11;3.97;;;3.00;;
76604;SDS011;73179;50.978;16.998;2023-10-31T02:42:37;6.78;;;2.60;;
76604;SDS011;73179;50.978;16.998;2023-10-31T02:45:03;4.40;;;2.50;;
76604;SDS011;73179;50.978;16.998;2023-10-31T02:47:30;4.90;;;2.50;;
76604;SDS011;73179;50.978;16.998;2023-10-31T02:49:56;4.15;;;2.25;;
76604;SDS011;73179;50.978;16.998;2023-10-31T02:52:22;5.25;;;2.80;;
76604;SDS011;73179;50.978;16.998;2023-10-31T02:54:48;4.40;;;3.03;;
76604;SDS011;73179;50.978;16.998;2023-10-31T02:57:14;4.80;;;2.28;;
76604;SDS011;73179;50.978;16.998;2023-10-31T02:59:41;6.00;;;3.10;;
76604;SDS011;73179;50.978;16.998;2023-10-31T03:02:07;6.45;;;2.50;;
76604;SDS011;73179;50.978;16.998;2023-10-31T03:04:33;5.80;;;2.80;;
76604;SDS011;73179;50.978;16.998;2023-10-31T03:06:59;3.72;;;2.20;;
76604;SDS011;73179;50.978;16.998;2023-10-31T03:09:25;5.13;;;2.50;;
76604;SDS011;73179;50.978;16.998;2023-10-31T03:11:52;5.38;;;2.65;;
76604;SDS011;73179;50.978;16.998;2023-10-31T03:14:18;4.43;;;2.20;;
76604;SDS011;73179;50.978;16.998;2023-10-31T03:16:44;7.90;;;2.25;;
76604;SDS011;73179;50.978;16.998;2023-10-31T03:19:10;6.38;;;2.38;;
76604;SDS011;73179;50.978;16.998;2023-10-31T03:21:36;4.75;;;2.38;;
76604;SDS011;73179;50.978;16.998;2023-10-31T03:24:02;5.40;;;2.40;;
76604;SDS011;73179;50.978;16.998;2023-10-31T03:26:28;5.07;;;2.72;;
76604;SDS011;73179;50.978;16.998;2023-10-31T03:28:54;5.05;;;2.40;;
76604;SDS011;73179;50.978;16.998;2023-10-31T03:31:23;6.90;;;3.10;;
76604;SDS011;73179;50.978;16.998;2023-10-31T03:33:49;4.88;;;2.72;;
76604;SDS011;73179;50.978;16.998;2023-10-31T03:36:16;3.95;;;3.05;;
76604;SDS011;73179;50.978;16.998;2023-10-31T03:38:43;9.23;;;3.10;;
76604;SDS011;73179;50.978;16.998;2023-10-31T03:41:09;4.85;;;3.75;;
76604;SDS011;73179;50.978;16.998;2023-10-31T03:43:35;5.93;;;3.03;;
76604;SDS011;73179;50.978;16.998;2023-10-31T03:46:01;5.40;;;2.60;;
76604;SDS011;73179;50.978;16.998;2023-10-31T03:48:27;3.10;;;2.00;;
76604;SDS011;73179;50.978;16.998;2023-10-31T03:50:53;2.80;;;2.40;;
76604;SDS011;73179;50.978;16.998;2023-10-31T03:53:19;6.15;;;2.45;;
76604;SDS011;73179;50.978;16.998;2023-10-31T03:55:45;4.22;;;2.38;;
76604;SDS011;73179;50.978;16.998;2023-10-31T03:58:11;5.15;;;3.03;;
76604;SDS011;73179;50.978;16.998;2023-10-31T04:00:38;4.00;;;2.75;;
76604;SDS011;73179;50.978;16.998;2023-10-31T04:03:05;4.07;;;3.05;;
76604;SDS011;73179;50.978;16.998;2023-10-31T04:05:31;5.72;;;3.05;;
76604;SDS011;73179;50.978;16.998;2023-10-31T04:07:57;3.28;;;2.83;;
76604;SDS011;73179;50.978;16.998;2023-10-31T04:10:23;3.65;;;2.60;;
76604;SDS011;73179;50.978;16.998;2023-10-31T04:12:50;4.88;;;2.50;;
76604;SDS011;73179;50.978;16.998;2023-10-31T04:15:16;9.10;;;3.10;;
76604;SDS011;73179;50.978;16.998;2023-10-31T04:17:43;6.05;;;3.30;;
76604;SDS011;73179;50.978;16.998;2023-10-31T04:20:09;3.95;;;2.63;;
76604;SDS011;73179;50.978;16.998;2023-10-31T04:22:35;4.72;;;2.78;;
76604;SDS011;73179;50.978;16.998;2023-10-31T04:25:02;7.35;;;3.15;;
76604;SDS011;73179;50.978;16.998;2023-10-31T04:27:28;4.80;;;2.70;;
76604;SDS011;73179;50.978;16.998;2023-10-31T04:29:54;4.50;;;2.80;;
76604;SDS011;73179;50.978;16.998;2023-10-31T04:32:20;5.20;;;2.75;;
76604;SDS011;73179;50.978;16.998;2023-10-31T04:34:46;4.78;;;2.80;;
76604;SDS011;73179;50.978;16.998;2023-10-31T04:37:12;7.47;;;3.03;;
76604;SDS011;73179;50.978;16.998;2023-10-31T04:39:38;3.65;;;2.50;;
76604;SDS011;73179;50.978;16.998;2023-10-31T04:42:04;4.03;;;2.70;;
76604;SDS011;73179;50.978;16.998;2023-10-31T04:44:30;6.78;;;2.80;;
76604;SDS011;73179;50.978;16.998;2023-10-31T04:46:56;7.97;;;3.28;;
76604;SDS011;73179;50.978;16.998;2023-10-31T04:49:21;5.25;;;2.72;;
76604;SDS011;73179;50.978;16.998;2023-10-31T04:51:48;6.35;;;2.40;;
76604;SDS011;73179;50.978;16.998;2023-10-31T04:54:13;7.45;;;3.05;;
76604;SDS011;73179;50.978;16.998;2023-10-31T04:56:40;4.88;;;2.70;;
76604;SDS011;73179;50.978;16.998;2023-10-31T04:59:05;6.45;;;3.30;;
76604;SDS011;73179;50.978;16.998;2023-10-31T05:01:32;6.28;;;2.80;;
76604;SDS011;73179;50.978;16.998;2023-10-31T05:03:57;10.45;;;3.78;;
76604;SDS011;73179;50.978;16.998;2023-10-31T05:06:23;4.82;;;2.70;;
76604;SDS011;73179;50.978;16.998;2023-10-31T05:08:49;4.75;;;2.72;;
76604;SDS011;73179;50.978;16.998;2023-10-31T05:11:18;4.88;;;2.53;;
76604;SDS011;73179;50.978;16.998;2023-10-31T05:13:45;5.93;;;2.55;;
76604;SDS011;73179;50.978;16.998;2023-10-31T05:16:11;8.02;;;2.95;;
76604;SDS011;73179;50.978;16.998;2023-10-31T05:18:37;5.57;;;2.97;;
76604;SDS011;73179;50.978;16.998;2023-10-31T05:21:04;5.45;;;2.88;;
76604;SDS011;73179;50.978;16.998;2023-10-31T05:23:31;8.68;;;3.67;;
76604;SDS011;73179;50.978;16.998;2023-10-31T05:25:57;3.20;;;2.50;;
76604;SDS011;73179;50.978;16.998;2023-10-31T05:28:23;3.58;;;2.60;;
76604;SDS011;73179;50.978;16.998;2023-10-31T05:30:49;5.93;;;3.55;;
76604;SDS011;73179;50.978;16.998;2023-10-31T05:33:15;6.20;;;3.05;;
76604;SDS011;73179;50.978;16.998;2023-10-31T05:35:42;7.10;;;3.00;;
76604;SDS011;73179;50.978;16.998;2023-10-31T05:38:08;5.07;;;3.38;;
76604;SDS011;73179;50.978;16.998;2023-10-31T05:40:34;6.65;;;3.40;;
76604;SDS011;73179;50.978;16.998;2023-10-31T05:43:02;5.28;;;2.80;;
76604;SDS011;73179;50.978;16.998;2023-10-31T05:45:29;5.78;;;2.90;;
76604;SDS011;73179;50.978;16.998;2023-10-31T05:47:56;5.50;;;3.42;;
76604;SDS011;73179;50.978;16.998;2023-10-31T05:50:22;6.53;;;2.97;;
76604;SDS011;73179;50.978;16.998;2023-10-31T05:52:48;3.88;;;2.90;;
76604;SDS011;73179;50.978;16.998;2023-10-31T05:55:14;4.63;;;3.25;;
76604;SDS011;73179;50.978;16.998;2023-10-31T05:57:40;4.25;;;3.00;;
76604;SDS011;73179;50.978;16.998;2023-10-31T06:00:07;8.80;;;3.03;;
76604;SDS011;73179;50.978;16.998;2023-10-31T06:02:34;7.40;;;3.58;;
76604;SDS011;73179;50.978;16.998;2023-10-31T06:05:00;5.75;;;3.55;;
76604;SDS011;73179;50.978;16.998;2023-10-31T06:07:25;6.10;;;3.60;;
76604;SDS011;73179;50.978;16.998;2023-10-31T06:09:52;4.75;;;3.42;;
76604;SDS011;73179;50.978;16.998;2023-10-31T06:12:17;4.57;;;3.60;;
76604;SDS011;73179;50.978;16.998;2023-10-31T06:14:44;6.95;;;3.75;;
76604;SDS011;73179;50.978;16.998;2023-10-31T06:17:09;5.32;;;3.35;;
76604;SDS011;73179;50.978;16.998;2023-10-31T06:19:36;3.78;;;3.28;;
76604;SDS011;73179;50.978;16.998;2023-10-31T06:22:02;4.97;;;3.22;;
76604;SDS011;73179;50.978;16.998;2023-10-31T06:24:29;5.57;;;2.95;;
76604;SDS011;73179;50.978;16.998;2023-10-31T06:26:54;4.95;;;3.15;;
76604;SDS011;73179;50.978;16.998;2023-10-31T06:29:21;4.93;;;3.08;;
76604;SDS011;73179;50.978;16.998;2023-10-31T06:31:46;5.03;;;3.38;;
76604;SDS011;73179;50.978;16.998;2023-10-31T06:34:13;6.10;;;4.10;;
76604;SDS011;73179;50.978;16.998;2023-10-31T06:36:39;4.07;;;3.67;;
76604;SDS011;73179;50.978;16.998;2023-10-31T06:39:05;4.43;;;3.47;;
76604;SDS011;73179;50.978;16.998;2023-10-31T06:41:32;5.35;;;4.00;;
76604;SDS011;73179;50.978;16.998;2023-10-31T06:43:59;4.93;;;4.22;;
76604;SDS011;73179;50.978;16.998;2023-10-31T06:46:24;4.75;;;4.07;;
76604;SDS011;73179;50.978;16.998;2023-10-31T06:48:51;4.97;;;4.10;;
76604;SDS011;73179;50.978;16.998;2023-10-31T06:51:17;6.20;;;3.67;;
76604;SDS011;73179;50.978;16.998;2023-10-31T06:53:43;6.57;;;4.30;;
76604;SDS011;73179;50.978;16.998;2023-10-31T06:56:09;4.40;;;4.00;;
76604;SDS011;73179;50.978;16.998;2023-10-31T06:58:35;6.28;;;4.10;;
76604;SDS011;73179;50.978;16.998;2023-10-31T07:01:01;5.72;;;4.00;;
76604;SDS011;73179;50.978;16.998;2023-10-31T07:03:28;7.15;;;4.07;;
76604;SDS011;73179;50.978;16.998;2023-10-31T07:05:54;6.22;;;3.85;;
76604;SDS011;73179;50.978;16.998;2023-10-31T07:08:22;4.47;;;3.78;;
76604;SDS011;73179;50.978;16.998;2023-10-31T07:10:48;4.85;;;3.90;;
76604;SDS011;73179;50.978;16.998;2023-10-31T07:13:14;4.88;;;3.45;;
76604;SDS011;73179;50.978;16.998;2023-10-31T07:15:40;5.18;;;4.40;;
76604;SDS011;73179;50.978;16.998;2023-10-31T07:18:06;4.88;;;3.58;;
76604;SDS011;73179;50.978;16.998;2023-10-31T07:20:35;4.25;;;3.22;;
76604;SDS011;73179;50.978;16.998;2023-10-31T07:23:01;3.28;;;2.85;;
76604;SDS011;73179;50.978;16.998;2023-10-31T07:25:27;3.95;;;3.05;;
76604;SDS011;73179;50.978;16.998;2023-10-31T07:27:54;4.15;;;3.08;;
76604;SDS011;73179;50.978;16.998;2023-10-31T07:30:19;4.07;;;3.47;;
76604;SDS011;73179;50.978;16.998;2023-10-31T07:32:45;3.38;;;2.90;;
76604;SDS011;73179;50.978;16.998;2023-10-31T07:35:11;3.85;;;2.50;;
76604;SDS011;73179;50.978;16.998;2023-10-31T07:37:37;3.50;;;2.35;;
76604;SDS011;73179;50.978;16.998;2023-10-31T07:40:03;3.30;;;2.55;;
76604;SDS011;73179;50.978;16.998;2023-10-31T07:42:30;2.80;;;2.50;;
76604;SDS011;73179;50.978;16.998;2023-10-31T07:44:56;3.88;;;2.55;;
76604;SDS011;73179;50.978;16.998;2023-10-31T07:47:22;3.13;;;2.25;;
76604;SDS011;73179;50.978;16.998;2023-10-31T07:49:48;3.67;;;3.05;;
76604;SDS011;73179;50.978;16.998;2023-10-31T07:52:14;3.38;;;3.05;;
76604;SDS011;73179;50.978;16.998;2023-10-31T07:54:40;3.38;;;2.67;;
76604;SDS011;73179;50.978;16.998;2023-10-31T07:57:07;3.53;;;2.88;;
76604;SDS011;73179;50.978;16.998;2023-10-31T07:59:33;3.58;;;3.20;;
76604;SDS011;73179;50.978;16.998;2023-10-31T08:02:00;3.85;;;2.85;;
76604;SDS011;73179;50.978;16.998;2023-10-31T08:04:26;5.82;;;2.78;;
76604;SDS011;73179;50.978;16.998;2023-10-31T08:06:53;3.10;;;2.50;;
76604;SDS011;73179;50.978;16.998;2023-10-31T08:09:19;2.58;;;2.20;;
76604;SDS011;73179;50.978;16.998;2023-10-31T08:11:45;4.05;;;2.00;;
76604;SDS011;73179;50.978;16.998;2023-10-31T08:14:11;3.28;;;2.92;;
76604;SDS011;73179;50.978;16.998;2023-10-31T08:16:38;4.10;;;2.30;;
76604;SDS011;73179;50.978;16.998;2023-10-31T08:19:04;3.00;;;2.47;;
76604;SDS011;73179;50.978;16.998;2023-10-31T08:21:30;2.88;;;2.42;;
76604;SDS011;73179;50.978;16.998;2023-10-31T08:24:01;3.15;;;2.20;;
76604;SDS011;73179;50.978;16.998;2023-10-31T08:26:29;3.35;;;2.47;;
76604;SDS011;73179;50.978;16.998;2023-10-31T08:28:56;3.85;;;2.60;;
76604;SDS011;73179;50.978;16.998;2023-10-31T08:31:22;3.45;;;2.35;;
76604;SDS011;73179;50.978;16.998;2023-10-31T08:33:48;3.13;;;2.50;;
76604;SDS011;73179;50.978;16.998;2023-10-31T08:36:15;3.25;;;2.45;;
76604;SDS011;73179;50.978;16.998;2023-10-31T08:38:41;5.57;;;2.65;;
76604;SDS011;73179;50.978;16.998;2023-10-31T08:41:07;2.80;;;2.50;;
76604;SDS011;73179;50.978;16.998;2023-10-31T08:43:33;3.03;;;2.40;;
76604;SDS011;73179;50.978;16.998;2023-10-31T08:46:00;3.88;;;2.60;;
76604;SDS011;73179;50.978;16.998;2023-10-31T08:48:26;2.55;;;2.13;;
76604;SDS011;73179;50.978;16.998;2023-10-31T08:50:52;3.15;;;2.75;;
76604;SDS011;73179;50.978;16.998;2023-10-31T08:53:18;2.60;;;2.40;;
76604;SDS011;73179;50.978;16.998;2023-10-31T08:55:47;3.38;;;2.08;;
76604;SDS011;73179;50.978;16.998;2023-10-31T08:58:12;5.03;;;2.50;;
76604;SDS011;73179;50.978;16.998;2023-10-31T09:00:39;5.10;;;2.30;;
76604;SDS011;73179;50.978;16.998;2023-10-31T09:03:08;3.28;;;2.45;;
76604;SDS011;73179;50.978;16.998;2023-10-31T09:05:34;3.30;;;2.25;;
76604;SDS011;73179;50.978;16.998;2023-10-31T09:08:00;3.78;;;2.90;;
76604;SDS011;73179;50.978;16.998;2023-10-31T09:10:26;4.07;;;3.40;;
76604;SDS011;73179;50.978;16.998;2023-10-31T09:12:52;3.47;;;3.00;;
76604;SDS011;73179;50.978;16.998;2023-10-31T09:15:18;3.72;;;3.00;;
76604;SDS011;73179;50.978;16.998;2023-10-31T09:17:46;3.65;;;3.08;;
76604;SDS011;73179;50.978;16.998;2023-10-31T09:20:13;3.47;;;3.08;;
76604;SDS011;73179;50.978;16.998;2023-10-31T09:22:38;4.57;;;3.15;;
76604;SDS011;73179;50.978;16.998;2023-10-31T09:25:04;3.30;;;2.70;;
76604;SDS011;73179;50.978;16.998;2023-10-31T09:27:31;4.68;;;3.08;;
76604;SDS011;73179;50.978;16.998;2023-10-31T09:29:57;4.72;;;3.20;;
76604;SDS011;73179;50.978;16.998;2023-10-31T09:32:22;3.42;;;3.00;;
76604;SDS011;73179;50.978;16.998;2023-10-31T09:34:49;3.22;;;2.53;;
76604;SDS011;73179;50.978;16.998;2023-10-31T09:37:14;3.95;;;2.97;;
76604;SDS011;73179;50.978;16.998;2023-10-31T09:39:41;4.13;;;2.85;;
76604;SDS011;73179;50.978;16.998;2023-10-31T09:42:06;2.92;;;2.58;;
76604;SDS011;73179;50.978;16.998;2023-10-31T09:44:33;3.13;;;2.55;;
76604;SDS011;73179;50.978;16.998;2023-10-31T09:47:00;4.97;;;2.75;;
76604;SDS011;73179;50.978;16.998;2023-10-31T09:49:27;4.28;;;2.92;;
76604;SDS011;73179;50.978;16.998;2023-10-31T09:51:53;3.35;;;2.80;;
76604;SDS011;73179;50.978;16.998;2023-10-31T09:54:20;4.22;;;2.97;;
76604;SDS011;73179;50.978;16.998;2023-10-31T09:56:48;4.13;;;3.10;;
76604;SDS011;73179;50.978;16.998;2023-10-31T09:59:14;4.57;;;3.10;;
76604;SDS011;73179;50.978;16.998;2023-10-31T10:01:43;5.97;;;2.95;;
76604;SDS011;73179;50.978;16.998;2023-10-31T10:04:10;4.03;;;2.60;;
76604;SDS011;73179;50.978;16.998;2023-10-31T10:06:39;3.95;;;2.70;;
76604;SDS011;73179;50.978;16.998;2023-10-31T10:09:26;4.18;;;3.13;;
76604;SDS011;73179;50.978;16.998;2023-10-31T10:11:53;3.22;;;2.75;;
76604;SDS011;73179;50.978;16.998;2023-10-31T10:14:22;3.90;;;3.13;;
76604;SDS011;73179;50.978;16.998;2023-10-31T10:16:49;3.72;;;3.15;;
76604;SDS011;73179;50.978;16.998;2023-10-31T10:19:16;4.05;;;3.05;;
76604;SDS011;73179;50.978;16.998;2023-10-31T10:21:48;3.70;;;3.20;;
76604;SDS011;73179;50.978;16.998;2023-10-31T10:24:17;4.20;;;3.10;;
76604;SDS011;73179;50.978;16.998;2023-10-31T10:26:44;4.25;;;3.22;;
76604;SDS011;73179;50.978;16.998;2023-10-31T10:29:11;4.43;;;3.17;;
76604;SDS011;73179;50.978;16.998;2023-10-31T10:31:36;3.88;;;3.08;;
76604;SDS011;73179;50.978;16.998;2023-10-31T10:34:03;5.93;;;3.10;;
76604;SDS011;73179;50.978;16.998;2023-10-31T10:36:30;4.95;;;3.33;;
76604;SDS011;73179;50.978;16.998;2023-10-31T10:38:58;4.30;;;3.30;;
76604;SDS011;73179;50.978;16.998;2023-10-31T10:41:25;5.00;;;3.45;;
76604;SDS011;73179;50.978;16.998;2023-10-31T10:43:56;3.10;;;2.67;;
76604;SDS011;73179;50.978;16.998;2023-10-31T10:46:34;3.97;;;2.47;;
76604;SDS011;73179;50.978;16.998;2023-10-31T10:49:05;4.10;;;2.22;;
76604;SDS011;73179;50.978;16.998;2023-10-31T10:54:29;2.33;;;1.92;;
76604;SDS011;73179;50.978;16.998;2023-10-31T10:57:07;3.50;;;2.00;;
76604;SDS011;73179;50.978;16.998;2023-10-31T10:59:47;2.20;;;1.83;;
76604;SDS011;73179;50.978;16.998;2023-10-31T11:02:17;2.30;;;1.85;;
76604;SDS011;73179;50.978;16.998;2023-10-31T11:04:44;2.88;;;1.90;;
76604;SDS011;73179;50.978;16.998;2023-10-31T11:07:10;2.67;;;1.70;;
76604;SDS011;73179;50.978;16.998;2023-10-31T11:09:37;2.30;;;1.75;;
76604;SDS011;73179;50.978;16.998;2023-10-31T11:12:06;2.63;;;1.73;;
76604;SDS011;73179;50.978;16.998;2023-10-31T11:14:34;4.18;;;1.80;;
76604;SDS011;73179;50.978;16.998;2023-10-31T11:17:01;4.15;;;2.00;;
76604;SDS011;73179;50.978;16.998;2023-10-31T11:19:37;3.40;;;2.38;;
76604;SDS011;73179;50.978;16.998;2023-10-31T11:22:03;4.50;;;2.30;;
76604;SDS011;73179;50.978;16.998;2023-10-31T11:24:31;2.50;;;1.98;;
76604;SDS011;73179;50.978;16.998;2023-10-31T11:27:03;4.25;;;2.10;;
76604;SDS011;73179;50.978;16.998;2023-10-31T11:29:31;3.17;;;2.00;;
76604;SDS011;73179;50.978;16.998;2023-10-31T11:31:57;4.00;;;2.30;;
76604;SDS011;73179;50.978;16.998;2023-10-31T11:34:28;4.90;;;2.78;;
76604;SDS011;73179;50.978;16.998;2023-10-31T11:42:48;3.05;;;2.25;;
76604;SDS011;73179;50.978;16.998;2023-10-31T11:45:29;2.90;;;2.50;;
76604;SDS011;73179;50.978;16.998;2023-10-31T11:47:58;3.55;;;2.60;;
76604;SDS011;73179;50.978;16.998;2023-10-31T11:50:25;3.03;;;2.33;;
76604;SDS011;73179;50.978;16.998;2023-10-31T11:55:40;3.17;;;2.45;;
76604;SDS011;73179;50.978;16.998;2023-10-31T11:58:16;3.10;;;2.10;;
76604;SDS011;73179;50.978;16.998;2023-10-31T12:03:11;3.78;;;2.30;;
76604;SDS011;73179;50.978;16.998;2023-10-31T12:05:38;3.90;;;2.40;;
76604;SDS011;73179;50.978;16.998;2023-10-31T12:08:04;3.33;;;2.30;;
76604;SDS011;73179;50.978;16.998;2023-10-31T12:10:30;3.05;;;2.38;;
76604;SDS011;73179;50.978;16.998;2023-10-31T12:12:56;2.67;;;2.05;;
76604;SDS011;73179;50.978;16.998;2023-10-31T12:15:27;3.10;;;2.20;;
76604;SDS011;73179;50.978;16.998;2023-10-31T12:17:57;3.40;;;2.53;;
76604;SDS011;73179;50.978;16.998;2023-10-31T12:20:24;2.88;;;2.25;;
76604;SDS011;73179;50.978;16.998;2023-10-31T12:23:00;3.83;;;2.45;;
76604;SDS011;73179;50.978;16.998;2023-10-31T12:25:28;3.03;;;2.25;;
76604;SDS011;73179;50.978;16.998;2023-10-31T12:27:54;3.60;;;2.10;;
76604;SDS011;73179;50.978;16.998;2023-10-31T12:30:21;2.92;;;2.15;;
76604;SDS011;73179;50.978;16.998;2023-10-31T12:32:56;3.75;;;2.30;;
76604;SDS011;73179;50.978;16.998;2023-10-31T12:35:23;7.68;;;1.95;;
76604;SDS011;73179;50.978;16.998;2023-10-31T12:37:51;2.97;;;1.85;;
76604;SDS011;73179;50.978;16.998;2023-10-31T12:40:19;1.95;;;1.67;;
76604;SDS011;73179;50.978;16.998;2023-10-31T12:42:47;2.80;;;2.03;;
76604;SDS011;73179;50.978;16.998;2023-10-31T12:45:15;2.42;;;1.50;;
76604;SDS011;73179;50.978;16.998;2023-10-31T12:47:43;1.90;;;1.30;;
76604;SDS011;73179;50.978;16.998;2023-10-31T12:50:13;1.92;;;1.42;;
76604;SDS011;73179;50.978;16.998;2023-10-31T12:52:46;1.63;;;1.40;;
76604;SDS011;73179;50.978;16.998;2023-10-31T12:55:15;1.35;;;1.25;;
76604;SDS011;73179;50.978;16.998;2023-10-31T12:57:42;1.88;;;1.40;;
76604;SDS011;73179;50.978;16.998;2023-10-31T13:00:10;1.48;;;1.20;;
76604;SDS011;73179;50.978;16.998;2023-10-31T13:02:38;2.58;;;1.40;;
76604;SDS011;73179;50.978;16.998;2023-10-31T13:05:12;2.38;;;1.60;;
76604;SDS011;73179;50.978;16.998;2023-10-31T13:07:39;3.20;;;1.55;;
76604;SDS011;73179;50.978;16.998;2023-10-31T13:10:06;3.58;;;1.50;;
76604;SDS011;73179;50.978;16.998;2023-10-31T13:12:36;1.77;;;1.40;;
76604;SDS011;73179;50.978;16.998;2023-10-31T13:15:02;1.70;;;1.50;;
76604;SDS011;73179;50.978;16.998;2023-10-31T13:17:29;2.67;;;1.70;;
76604;SDS011;73179;50.978;16.998;2023-10-31T13:19:56;2.72;;;1.63;;
76604;SDS011;73179;50.978;16.998;2023-10-31T13:22:22;1.98;;;1.60;;
76604;SDS011;73179;50.978;16.998;2023-10-31T13:24:49;1.70;;;1.40;;
76604;SDS011;73179;50.978;16.998;2023-10-31T13:27:14;2.13;;;1.50;;
76604;SDS011;73179;50.978;16.998;2023-10-31T13:29:41;2.38;;;1.55;;
76604;SDS011;73179;50.978;16.998;2023-10-31T13:32:07;2.50;;;2.20;;
76604;SDS011;73179;50.978;16.998;2023-10-31T13:34:34;3.45;;;1.90;;
76604;SDS011;73179;50.978;16.998;2023-10-31T13:37:00;2.40;;;1.80;;
76604;SDS011;73179;50.978;16.998;2023-10-31T13:39:28;4.63;;;2.20;;
76604;SDS011;73179;50.978;16.998;2023-10-31T13:41:54;2.95;;;1.90;;
76604;SDS011;73179;50.978;16.998;2023-10-31T13:44:20;5.55;;;2.45;;
76604;SDS011;73179;50.978;16.998;2023-10-31T13:46:46;1.80;;;1.65;;
76604;SDS011;73179;50.978;16.998;2023-10-31T13:49:12;3.50;;;2.20;;
76604;SDS011;73179;50.978;16.998;2023-10-31T13:51:42;2.75;;;1.85;;
76604;SDS011;73179;50.978;16.998;2023-10-31T13:54:08;3.28;;;1.85;;
76604;SDS011;73179;50.978;16.998;2023-10-31T13:56:34;3.45;;;1.90;;
76604;SDS011;73179;50.978;16.998;2023-10-31T13:59:00;4.05;;;1.60;;
76604;SDS011;73179;50.978;16.998;2023-10-31T14:01:27;3.88;;;2.08;;
76604;SDS011;73179;50.978;16.998;2023-10-31T14:03:54;2.63;;;1.80;;
76604;SDS011;73179;50.978;16.998;2023-10-31T14:06:20;2.58;;;1.70;;
76604;SDS011;73179;50.978;16.998;2023-10-31T14:08:46;3.17;;;1.83;;
76604;SDS011;73179;50.978;16.998;2023-10-31T14:11:12;5.72;;;2.40;;
76604;SDS011;73179;50.978;16.998;2023-10-31T14:13:37;2.50;;;1.80;;
76604;SDS011;73179;50.978;16.998;2023-10-31T14:16:04;3.15;;;1.80;;
76604;SDS011;73179;50.978;16.998;2023-10-31T14:18:30;4.80;;;1.90;;
76604;SDS011;73179;50.978;16.998;2023-10-31T14:20:57;2.22;;;1.95;;
76604;SDS011;73179;50.978;16.998;2023-10-31T14:23:22;4.57;;;1.73;;
76604;SDS011;73179;50.978;16.998;2023-10-31T14:25:50;4.03;;;1.63;;
76604;SDS011;73179;50.978;16.998;2023-10-31T14:28:16;2.42;;;1.63;;
76604;SDS011;73179;50.978;16.998;2023-10-31T14:30:42;1.70;;;1.40;;
76604;SDS011;73179;50.978;16.998;2023-10-31T14:33:08;2.03;;;1.50;;
76604;SDS011;73179;50.978;16.998;2023-10-31T14:35:34;2.85;;;1.40;;
76604;SDS011;73179;50.978;16.998;2023-10-31T14:38:00;2.05;;;1.63;;
76604;SDS011;73179;50.978;16.998;2023-10-31T14:40:26;3.17;;;1.42;;
76604;SDS011;73179;50.978;16.998;2023-10-31T14:42:52;2.20;;;1.60;;
76604;SDS011;73179;50.978;16.998;2023-10-31T14:45:18;1.60;;;1.50;;